Airfield :
LOGIN :

Register | Disclaimer

   EN    FR    IT 

 










Legend :    VFR   Marginal VFR   IFR   Intensive IFR   Very Intensive IFR
Visi :
Ceiling :
>= 8 km
>= 3000ft
5 to 8 km
1000 to 3000 ft
1500m to 5 km
500 to 1000 ft
800 to 1500m
200 to 500 ft
< 800m
< 200 ft
Symbols :   Thunderstorms  Fog  Heavy snow  Heavy precipitations  Wind > 20 kt
SIGMETs :     Misc.  Thunderstorms  Icing  Turbulence  Mountain Waves  Volcanic Ashes







- Airport Elevation : 56 ft
- IATA code : TRD


ENVA - Trondheim , Værnes

CURRENT METAR :
  • 170520Z 27012KT 8000 DZ FEW009 OVC030 11/09 Q1015 TEMPO 4000 RADZ BKN009 RMK WIND 670FT 28011KT

EXPIRED METARs :
  • 170450Z 28010KT 9999 -DZ FEW009 OVC031 12/10 Q1014 TEMPO 4000 RADZ BKN009 RMK WIND 670FT 28010KT
  • 170420Z 28017KT 9999 FEW009 BKN021 12/09 Q1014 REDZ RMK WIND 670FT 29013KT
  • 170350Z 27015KT 7000 -DZ FEW004 BKN011 BKN024 12/11 Q1014 RMK WIND 670FT 28014KT
  • 170320Z 27015KT 5000 -DZ FEW009 SCT015 BKN021 12/10 Q1014 RMK WIND 670FT 27011KT
  • 170250Z 28013KT 7000 -RA BKN013 BKN017 OVC021 12/11 Q1014 REDZ RMK WIND 670FT 28012KT

TAF AMD TAF ENVA
Valid from the 17 at 02:00 until the 18 at 00:00 UTC


1702/1724 27010KT 9999 SCT040 BKN070
TEMPO 1702/1709 4000 -RADZ BKN008
BECMG 1711/1713 VRB07KT
No reported NOTAMs for that airfield.



MET'MAP, your aeronautical weather chart ! - Copyright ORBIFLY December 2007 - Disclaimer

ORBIFLY MET'MAP TEAM :

Programming & Development : Alexandra Zaïnal
Concept & Development : Baudouin d'Aumeries
Co-Development & Prog : Marc-Olivier Méhu
Technical & hardware support : Manuel Goepfert

Contact : metmap@orbifly.com




SOURCES & CREDITS :

   NOAA